LGAL/AXD METAR and TAF weather

Enter ICAO airport designator
Station Type Date Time Source
LGAL METAR 2019/08/22 04:50 UTC NOAA

LGAL 220450Z 06004KT CAVOK 21/16 Q1016


Station Type Date Time Source
LGAL Decoded METAR 2019/08/22 04:50 UTC NOAA

Station name not available
Aug 22, 2019 - 12:50 AM EDT / 2019.08.22 0450 UTC
Wind: from the ENE (060 degrees) at 5 MPH (4 KT):0
Visibility: greater than 7 mile(s):0
Temperature: 69 F (21 C)
Dew Point: 60 F (16 C)
Relative Humidity: 73%
Pressure (altimeter): 30.00 in. Hg (1016 hPa)
ob: LGAL 220450Z 06004KT CAVOK 21/16 Q1016
cycle: 5

Station Type Date Time Source
LGAL TAF 2012/09/21 03:06 UTC NOAA

TAF TAF LGAL 210200Z 2103/2115 03012G22KT 9999 FEW020 SCT070 PROB30
TEMPO 2103/2106 6000 RA SCT015 BKN030 PROB30

Example: see airport list